Time;durP1;ratioP1;P1;durP2;ratioP2;P2;SDS_P1;SDS_P2;PMS_P1;PMS_P2;Temp;Humidity;BMP_temperature;BMP_pressure;BME280_temperature;BME280_humidity;BME280_pressure;Samples;Min_cycle;Max_cycle;Signal;HPM_P1;HPM_P2
2021/07/31 00:00:13;;;;;;;51.53;16.58;;;;;;;28.84;40.71;98844.66;4990122;28;20554;-71
2021/07/31 00:02:38;;;;;;;39.08;17.40;;;;;;;28.81;40.88;98851.34;4991353;28;20019;-72
2021/07/31 00:05:07;;;;;;;39.63;18.63;;;;;;;28.64;41.05;98845.88;4990099;28;20418;-71
2021/07/31 00:07:33;;;;;;;37.00;19.60;;;;;;;28.42;42.17;98849.66;4990029;28;20415;-72
2021/07/31 00:09:58;;;;;;;43.08;21.80;;;;;;;28.68;41.07;98854.38;4990266;28;20042;-71
2021/07/31 00:12:24;;;;;;;44.75;23.00;;;;;;;28.59;41.45;98855.13;4991458;28;20043;-72
2021/07/31 00:14:49;;;;;;;46.28;24.95;;;;;;;28.25;42.45;98857.72;4991611;28;20415;-71
2021/07/31 00:17:15;;;;;;;42.40;23.23;;;;;;;28.39;42.37;98844.84;4990051;28;20566;-71
2021/07/31 00:19:40;;;;;;;42.53;23.98;;;;;;;28.37;42.03;98852.34;4989469;28;20475;-72
2021/07/31 00:22:06;;;;;;;38.30;22.15;;;;;;;28.29;42.45;98849.75;4991332;28;20022;-72
2021/07/31 00:24:31;;;;;;;37.60;23.65;;;;;;;28.39;42.33;98849.78;4991246;28;20033;-71
2021/07/31 00:26:57;;;;;;;38.17;22.75;;;;;;;28.26;42.52;98847.81;4990165;28;20479;-71
2021/07/31 00:29:23;;;;;;;51.05;23.73;;;;;;;28.52;41.44;98853.34;4991158;28;20546;-72
2021/07/31 00:31:51;;;;;;;42.05;23.70;;;;;;;28.43;41.54;98844.72;4991029;28;20105;-72
2021/07/31 00:34:17;;;;;;;42.53;22.35;;;;;;;28.34;42.00;98833.16;4990016;28;20484;-71
2021/07/31 00:36:42;;;;;;;31.60;18.63;;;;;;;28.45;42.05;98842.94;4999167;28;20026;-72
2021/07/31 00:39:08;;;;;;;41.45;20.60;;;;;;;28.32;42.18;98850.88;4990475;28;20034;-72
2021/07/31 00:41:33;;;;;;;41.35;20.02;;;;;;;27.98;43.10;98849.72;4989663;28;20121;-71
2021/07/31 00:43:59;;;;;;;37.67;19.80;;;;;;;27.83;43.61;98850.28;4989907;28;20502;-72
2021/07/31 00:46:25;;;;;;;36.50;19.00;;;;;;;27.72;44.22;98849.91;4990968;28;20057;-71
2021/07/31 00:48:51;;;;;;;36.20;19.50;;;;;;;27.80;44.05;98845.50;4990813;28;20081;-72
2021/07/31 00:51:18;;;;;;;41.70;18.67;;;;;;;27.69;44.67;98850.84;4989529;28;20023;-71
2021/07/31 00:53:44;;;;;;;31.42;19.63;;;;;;;27.66;44.53;98841.09;4988280;28;20506;-71
2021/07/31 00:56:11;;;;;;;38.15;21.42;;;;;;;27.63;44.52;98847.78;4990892;28;20500;-71
2021/07/31 00:58:36;;;;;;;39.15;19.20;;;;;;;27.65;44.60;98845.22;4990846;28;20068;-71
2021/07/31 01:01:02;;;;;;;33.97;18.92;;;;;;;27.90;43.88;98837.72;4990788;28;20046;-72
2021/07/31 01:03:28;;;;;;;36.75;18.65;;;;;;;27.66;44.34;98840.31;4989762;28;20042;-72
2021/07/31 01:05:53;;;;;;;38.08;20.00;;;;;;;27.74;44.08;98845.28;4990630;28;20022;-71
2021/07/31 01:08:19;;;;;;;38.25;17.85;;;;;;;27.57;44.32;98844.69;4989390;28;20065;-71
2021/07/31 01:10:45;;;;;;;38.47;18.98;;;;;;;27.56;44.46;98839.41;4989951;28;20034;-71
2021/07/31 01:13:11;;;;;;;38.25;19.05;;;;;;;27.62;44.54;98828.94;4990352;28;20034;-71
2021/07/31 01:15:54;;;;;;;29.55;16.38;;;;;;;27.52;44.51;98833.81;4990855;28;20030;-72
2021/07/31 01:18:20;;;;;;;40.42;18.27;;;;;;;27.42;44.70;98835.00;5005704;28;20149;-72
2021/07/31 01:20:45;;;;;;;33.40;17.60;;;;;;;27.66;43.74;98832.47;5004937;28;20050;-71
2021/07/31 01:23:11;;;;;;;26.48;16.63;;;;;;;27.49;44.15;98831.84;4989154;28;20030;-71
2021/07/31 01:25:36;;;;;;;33.70;16.05;;;;;;;27.54;44.25;98830.47;5005721;28;20459;-71
2021/07/31 01:28:01;;;;;;;40.22;17.75;;;;;;;27.46;44.24;98827.84;4990264;28;20388;-71
2021/07/31 01:30:27;;;;;;;30.55;17.83;;;;;;;27.69;44.03;98825.00;5004464;28;20619;-71
2021/07/31 01:32:53;;;;;;;27.80;17.65;;;;;;;27.61;43.88;98822.38;4990647;28;20022;-72
2021/07/31 01:35:18;;;;;;;34.55;16.25;;;;;;;27.54;44.45;98825.53;4990814;28;20045;-71
2021/07/31 01:37:43;;;;;;;29.80;16.00;;;;;;;27.72;43.62;98827.75;4990422;28;20544;-71
2021/07/31 01:40:10;;;;;;;39.08;19.10;;;;;;;27.49;44.69;98837.59;4990170;28;20488;-71
2021/07/31 01:42:36;;;;;;;29.77;17.48;;;;;;;27.41;44.82;98834.19;4990340;28;20509;-71
2021/07/31 01:45:02;;;;;;;32.40;16.85;;;;;;;27.33;45.18;98830.78;4988902;28;20500;-71
2021/07/31 01:47:27;;;;;;;49.00;19.20;;;;;;;27.02;46.29;98847.91;4989408;28;20026;-71
2021/07/31 01:49:53;;;;;;;42.22;19.40;;;;;;;27.36;45.76;98849.16;4991898;28;20041;-71
2021/07/31 01:52:18;;;;;;;45.60;18.40;;;;;;;27.22;46.28;98838.97;4993984;28;20037;-71
2021/07/31 01:54:43;;;;;;;44.72;18.25;;;;;;;27.06;46.72;98842.81;4994022;28;20030;-72
2021/07/31 01:57:09;;;;;;;34.15;17.67;;;;;;;26.93;47.50;98845.75;4992840;28;20018;-71
2021/07/31 01:59:34;;;;;;;30.23;18.73;;;;;;;27.02;47.11;98848.69;4993924;28;20034;-71
2021/07/31 02:02:00;;;;;;;38.70;18.20;;;;;;;27.08;46.55;98840.28;5008746;28;20038;-72
2021/07/31 02:04:25;;;;;;;42.45;17.67;;;;;;;27.09;46.40;98841.91;4993826;28;20030;-71
2021/07/31 02:06:51;;;;;;;30.73;17.88;;;;;;;27.03;46.88;98846.63;5007728;28;20407;-72
2021/07/31 02:09:16;;;;;;;27.35;16.80;;;;;;;26.91;47.10;98846.19;4993626;28;20450;-71
2021/07/31 02:11:41;;;;;;;31.20;17.48;;;;;;;27.02;46.75;98847.91;4993527;28;20038;-71
2021/07/31 02:14:07;;;;;;;39.30;17.77;;;;;;;27.02;46.78;98842.16;4992190;28;20030;-71
2021/07/31 02:16:32;;;;;;;43.47;16.23;;;;;;;26.96;46.47;98844.00;4992796;28;20034;-71
2021/07/31 02:18:58;;;;;;;28.60;17.65;;;;;;;26.98;46.10;98839.41;4992208;28;20034;-71
2021/07/31 02:21:23;;;;;;;30.63;16.15;;;;;;;26.95;46.15;98846.09;4993560;28;20530;-72
2021/07/31 02:23:49;;;;;;;27.77;16.27;;;;;;;26.96;46.17;98850.56;4991327;28;20046;-71
2021/07/31 02:26:14;;;;;;;27.88;17.45;;;;;;;26.56;47.15;98859.66;4993101;28;20034;-72
2021/07/31 02:28:40;;;;;;;29.50;17.33;;;;;;;26.62;47.49;98849.22;4993387;28;20038;-71
2021/07/31 02:31:06;;;;;;;33.15;17.40;;;;;;;26.49;47.74;98846.38;4991966;28;20026;-71
2021/07/31 02:33:32;;;;;;;39.58;18.17;;;;;;;26.30;48.79;98853.94;4992091;28;20042;-71
2021/07/31 02:36:02;;;;;;;29.77;17.40;;;;;;;26.49;47.97;98852.91;4993219;28;20029;-71
2021/07/31 02:38:27;;;;;;;31.88;16.83;;;;;;;26.26;48.52;98856.13;4991978;28;20452;-71
2021/07/31 02:40:53;;;;;;;33.13;16.00;;;;;;;26.49;48.08;98855.75;4993061;28;20034;-71
2021/07/31 02:43:18;;;;;;;42.70;18.38;;;;;;;26.46;47.79;98850.97;4991827;28;20040;-71
2021/07/31 02:45:43;;;;;;;37.30;17.73;;;;;;;26.36;48.25;98852.09;4992999;28;20037;-71
2021/07/31 02:48:09;;;;;;;36.72;17.85;;;;;;;26.26;48.72;98848.34;4991699;28;20030;-72
2021/07/31 02:50:34;;;;;;;35.70;15.95;;;;;;;26.16;48.67;98855.16;4992712;28;20022;-71
2021/07/31 02:53:00;;;;;;;40.03;16.80;;;;;;;26.22;48.59;98853.34;4991417;28;20431;-71
2021/07/31 02:55:25;;;;;;;39.63;17.75;;;;;;;26.15;48.89;98850.69;4992612;28;20022;-71
2021/07/31 02:57:51;;;;;;;33.10;17.58;;;;;;;26.20;48.72;98861.63;4991539;28;20042;-71
2021/07/31 03:00:16;;;;;;;35.58;20.02;;;;;;;26.14;48.97;98858.47;4992162;28;20066;-71
2021/07/31 03:02:42;;;;;;;39.60;18.17;;;;;;;26.06;49.02;98845.63;4990862;28;20027;-71
2021/07/31 03:05:08;;;;;;;40.38;18.38;;;;;;;25.89;49.30;98854.34;5007745;28;20034;-71
2021/07/31 03:07:34;;;;;;;40.47;19.13;;;;;;;25.22;51.42;98850.09;5007429;28;20529;-71
2021/07/31 03:09:59;;;;;;;37.88;20.13;;;;;;;25.27;51.44;98849.53;4989833;28;20038;-71
2021/07/31 03:12:25;;;;;;;41.50;20.05;;;;;;;25.45;51.43;98862.53;4992299;28;20407;-71
2021/07/31 03:14:51;;;;;;;49.33;21.02;;;;;;;25.34;51.28;98866.53;4992686;28;20411;-71
2021/07/31 03:17:17;;;;;;;35.55;19.48;;;;;;;25.58;50.83;98857.72;4992585;28;20030;-71
2021/07/31 03:19:43;;;;;;;39.15;19.33;;;;;;;25.69;50.59;98860.25;4989491;28;20054;-71
2021/07/31 03:22:09;;;;;;;37.95;19.38;;;;;;;25.75;49.69;98869.88;4992539;28;20022;-71
2021/07/31 03:24:34;;;;;;;33.97;19.58;;;;;;;25.46;50.55;98869.88;4992292;28;20034;-72
2021/07/31 03:27:00;;;;;;;41.08;19.65;;;;;;;25.62;50.32;98875.59;4992244;28;20021;-71
2021/07/31 03:29:25;;;;;;;33.00;19.40;;;;;;;25.58;49.77;98885.53;4990948;28;20451;-71
2021/07/31 03:31:52;;;;;;;37.40;19.83;;;;;;;25.47;50.47;98885.81;5007105;28;20019;-71
2021/07/31 03:34:18;;;;;;;35.65;21.48;;;;;;;25.32;51.10;98889.03;4992281;28;20045;-71
2021/07/31 03:36:43;;;;;;;38.53;19.15;;;;;;;25.11;51.60;98884.72;4990997;28;20034;-71
2021/07/31 03:39:08;;;;;;;103.22;23.75;;;;;;;25.11;51.64;98884.72;4982550;28;20027;-71
2021/07/31 03:41:34;;;;;;;116.18;23.90;;;;;;;25.15;51.46;98893.22;4974291;28;20027;-71
2021/07/31 03:43:59;;;;;;;118.70;25.02;;;;;;;25.33;51.05;98884.94;4980656;28;20092;-71
2021/07/31 03:46:25;;;;;;;56.42;22.50;;;;;;;25.41;51.30;98893.31;5005548;28;20058;-71
2021/07/31 03:48:50;;;;;;;47.22;21.40;;;;;;;25.44;51.01;98895.28;4990213;28;20034;-71
2021/07/31 03:51:16;;;;;;;44.90;16.48;;;;;;;25.48;49.33;98887.41;4990447;28;20022;-71
2021/07/31 03:53:41;;;;;;;43.67;17.70;;;;;;;25.56;49.44;98893.78;4991761;28;20388;-72
2021/07/31 03:56:08;;;;;;;83.53;19.92;;;;;;;25.59;49.78;98893.66;4990623;28;20077;-71
2021/07/31 03:58:33;;;;;;;92.68;19.65;;;;;;;25.81;49.46;98904.47;5006753;28;20065;-71
2021/07/31 04:00:59;;;;;;;39.95;15.93;;;;;;;25.72;47.72;98898.63;5006720;28;20077;-71
2021/07/31 04:03:24;;;;;;;39.70;17.55;;;;;;;25.81;48.69;98901.63;4991648;28;20045;-71
2021/07/31 04:05:50;;;;;;;34.28;16.98;;;;;;;26.05;47.38;98905.00;4989984;28;20037;-76
2021/07/31 04:08:15;;;;;;;104.45;18.77;;;;;;;26.02;47.20;98903.06;4990196;28;20022;-72
2021/07/31 04:10:41;;;;;;;37.38;16.17;;;;;;;26.01;46.67;98915.78;5006627;28;20685;-71
2021/07/31 04:13:07;;;;;;;105.65;19.58;;;;;;;26.19;45.75;98915.28;4987887;28;20058;-71
2021/07/31 04:15:33;;;;;;;124.68;22.77;;;;;;;26.36;45.26;98915.16;4991327;28;20069;-74
2021/07/31 04:17:58;;;;;;;49.75;15.88;;;;;;;26.23;46.12;98912.28;4990961;28;20034;-71
2021/07/31 04:20:24;;;;;;;40.35;16.45;;;;;;;26.32;45.47;98920.22;4989585;28;20514;-72
2021/07/31 04:22:49;;;;;;;35.67;16.25;;;;;;;26.49;45.12;98913.09;4990071;28;20022;-72
2021/07/31 04:25:15;;;;;;;36.83;16.35;;;;;;;26.39;45.29;98922.06;5005101;28;20388;-72
2021/07/31 04:27:40;;;;;;;36.90;15.57;;;;;;;26.46;45.26;98924.69;4989452;28;20475;-74
2021/07/31 04:30:06;;;;;;;33.65;14.48;;;;;;;26.11;46.11;98922.44;4989278;28;20030;-73
2021/07/31 04:32:32;;;;;;;33.83;15.68;;;;;;;26.19;46.25;98920.19;4987870;28;20535;-75
2021/07/31 04:34:57;;;;;;;31.60;16.25;;;;;;;26.24;46.61;98922.47;4990053;28;20050;-73
2021/07/31 04:37:22;;;;;;;29.38;16.45;;;;;;;26.02;48.17;98923.13;4991206;28;20605;-72
2021/07/31 04:39:48;;;;;;;38.17;17.10;;;;;;;26.20;48.25;98925.47;4990902;28;20041;-72
2021/07/31 04:42:13;;;;;;;37.47;16.88;;;;;;;26.23;48.31;98928.69;5005019;28;20498;-78
2021/07/31 04:44:39;;;;;;;26.95;15.90;;;;;;;26.24;47.43;98933.16;4991298;28;20065;-72
2021/07/31 04:47:04;;;;;;;31.70;15.32;;;;;;;26.26;48.08;98931.44;4989418;28;20058;-72
2021/07/31 04:49:30;;;;;;;28.85;13.93;;;;;;;26.44;46.80;98921.47;4988993;28;20081;-71
2021/07/31 04:51:55;;;;;;;29.30;15.18;;;;;;;26.14;46.92;98932.97;4990288;28;20427;-72
2021/07/31 04:54:21;;;;;;;31.10;14.70;;;;;;;26.28;47.37;98919.50;4991079;28;20093;-71
2021/07/31 04:56:46;;;;;;;35.65;16.25;;;;;;;26.24;47.27;98930.28;4990785;28;20413;-71
2021/07/31 04:59:12;;;;;;;23.88;15.05;;;;;;;26.06;47.67;98932.41;4988668;28;20105;-71
2021/07/31 05:01:37;;;;;;;30.65;14.88;;;;;;;26.01;47.92;98927.25;4988125;28;20503;-72
2021/07/31 05:04:02;;;;;;;31.35;16.52;;;;;;;26.21;47.69;98932.00;4989378;28;20034;-75
2021/07/31 05:06:29;;;;;;;42.80;17.67;;;;;;;26.03;48.34;98932.50;4989832;28;20462;-72
2021/07/31 05:08:55;;;;;;;30.38;16.63;;;;;;;25.93;48.94;98926.63;5001705;28;20397;-72
2021/07/31 05:11:23;;;;;;;41.15;18.17;;;;;;;26.09;48.76;98927.81;4989437;28;20045;-71
2021/07/31 05:13:49;;;;;;;44.05;15.25;;;;;;;26.18;47.39;98922.22;5005230;28;20129;-72
2021/07/31 05:16:16;;;;;;;32.17;15.80;;;;;;;26.39;46.56;98933.53;4989339;28;20141;-72
2021/07/31 05:18:42;;;;;;;39.47;16.48;;;;;;;26.53;45.83;98929.38;4988291;28;20041;-75
2021/07/31 05:21:08;;;;;;;30.38;14.80;;;;;;;26.48;46.20;98939.34;4990559;28;20046;-75
2021/07/31 05:23:33;;;;;;;32.38;15.32;;;;;;;26.47;45.96;98935.69;4990727;28;20096;-75
2021/07/31 05:25:59;;;;;;;38.22;14.65;;;;;;;26.67;45.50;98928.13;4993132;28;20109;-72
2021/07/31 05:28:25;;;;;;;36.28;15.05;;;;;;;26.76;45.41;98939.72;4992950;28;20068;-75
2021/07/31 05:30:50;;;;;;;39.20;15.02;;;;;;;26.85;45.25;98936.97;4994507;28;20058;-75
2021/07/31 05:33:16;;;;;;;31.65;14.88;;;;;;;26.86;45.31;98934.88;4994037;28;20539;-75
2021/07/31 05:35:41;;;;;;;32.72;13.95;;;;;;;26.97;44.64;98932.47;4993213;28;20030;-71
2021/07/31 05:38:06;;;;;;;26.80;14.50;;;;;;;26.91;45.07;98934.34;4988944;28;20309;-75
2021/07/31 05:40:32;;;;;;;32.97;15.63;;;;;;;26.99;44.76;98932.81;4994305;28;20030;-75
2021/07/31 05:42:58;;;;;;;29.10;15.20;;;;;;;27.13;44.63;98931.53;4994062;28;20030;-74
2021/07/31 05:45:23;;;;;;;31.98;13.43;;;;;;;27.21;44.29;98932.09;4992898;28;20085;-74
2021/07/31 05:47:49;;;;;;;26.42;12.68;;;;;;;27.16;44.21;98930.59;4993981;28;20023;-74
2021/07/31 05:50:14;;;;;;;33.88;13.85;;;;;;;27.25;44.39;98927.03;4994038;28;20038;-74
2021/07/31 05:52:40;;;;;;;32.10;14.15;;;;;;;27.33;44.38;98936.19;4994006;28;20029;-73
2021/07/31 05:55:07;;;;;;;44.25;15.82;;;;;;;27.41;44.12;98931.78;4992630;28;20424;-74
2021/07/31 05:57:33;;;;;;;39.13;14.95;;;;;;;27.45;43.83;98940.28;4993909;28;20109;-72
2021/07/31 05:59:59;;;;;;;34.25;13.70;;;;;;;27.57;44.51;98935.78;4992603;28;20038;-72
2021/07/31 06:02:25;;;;;;;27.10;13.50;;;;;;;27.68;43.98;98938.28;4993456;28;20031;-71
2021/07/31 06:04:51;;;;;;;32.63;13.68;;;;;;;27.77;43.71;98935.50;4991692;28;20034;-73
2021/07/31 06:07:17;;;;;;;40.67;15.23;;;;;;;27.83;42.66;98939.34;4993485;28;20027;-73
2021/07/31 06:09:46;;;;;;;33.10;13.43;;;;;;;27.99;42.59;98928.91;4993892;28;20042;-71
2021/07/31 06:12:11;;;;;;;34.78;12.00;;;;;;;28.10;41.38;98935.06;4992547;28;20034;-71
2021/07/31 06:14:39;;;;;;;31.70;12.18;;;;;;;28.13;41.48;98939.88;5005919;28;20053;-71
2021/07/31 06:17:05;;;;;;;28.77;13.95;;;;;;;28.25;41.13;98935.34;4993528;28;20023;-73
2021/07/31 06:19:32;;;;;;;33.88;13.75;;;;;;;28.35;40.75;98935.41;4993459;28;20061;-71
2021/07/31 06:21:58;;;;;;;22.92;12.18;;;;;;;28.45;40.30;98929.22;4992773;28;20032;-71
2021/07/31 06:24:24;;;;;;;27.65;13.20;;;;;;;28.48;40.69;98933.22;4993964;28;20038;-71
2021/07/31 06:26:49;;;;;;;33.17;12.23;;;;;;;28.50;40.84;98935.63;4993293;28;20029;-73
2021/07/31 06:29:15;;;;;;;26.48;12.82;;;;;;;28.47;40.73;98942.31;4992073;28;20491;-74
2021/07/31 06:31:41;;;;;;;39.33;13.88;;;;;;;28.59;40.91;98938.53;4991993;28;20022;-71
2021/07/31 06:34:06;;;;;;;43.17;12.75;;;;;;;28.55;41.56;98935.00;4984908;28;20030;-74
2021/07/31 06:36:33;;;;;;;37.25;13.05;;;;;;;28.75;41.75;98934.59;4989874;28;20681;-73
2021/07/31 06:38:59;;;;;;;28.02;13.85;;;;;;;28.83;41.19;98935.13;4991714;28;20111;-74
2021/07/31 06:41:24;;;;;;;30.45;12.35;;;;;;;28.92;41.21;98932.28;4987319;28;20516;-71
2021/07/31 06:43:50;;;;;;;31.55;13.63;;;;;;;28.91;41.37;98932.78;4991383;28;20085;-78
2021/07/31 06:46:17;;;;;;;19.88;12.68;;;;;;;28.94;41.60;98941.25;5007989;28;20081;-70
2021/07/31 06:48:43;;;;;;;36.70;14.60;;;;;;;29.10;42.42;98933.63;4990404;28;20471;-75
2021/07/31 06:51:09;;;;;;;31.90;14.10;;;;;;;29.09;41.30;98934.91;4989992;28;20027;-75
2021/07/31 06:53:35;;;;;;;26.85;13.55;;;;;;;29.13;41.08;98924.03;4991141;28;20042;-75
2021/07/31 06:56:02;;;;;;;33.78;14.18;;;;;;;29.24;41.00;98927.25;4992721;28;20054;-70
2021/07/31 06:58:28;;;;;;;32.10;15.35;;;;;;;29.31;41.52;98922.44;4990315;28;20030;-70
2021/07/31 07:00:54;;;;;;;25.05;15.25;;;;;;;29.42;40.76;98929.34;4990143;28;20031;-76
2021/07/31 07:03:19;;;;;;;31.02;16.33;;;;;;;29.47;40.43;98927.13;4982053;28;20039;-76
2021/07/31 07:05:45;;;;;;;32.92;15.40;;;;;;;29.51;40.57;98930.69;4990213;28;20026;-77
2021/07/31 07:08:11;;;;;;;29.75;17.73;;;;;;;29.55;40.75;98926.31;5000636;28;20615;-70
2021/07/31 07:10:36;;;;;;;36.90;19.48;;;;;;;29.70;39.74;98919.94;4989214;28;20038;-71
2021/07/31 07:13:02;;;;;;;39.25;20.35;;;;;;;29.72;40.84;98920.25;4989096;28;20415;-69
2021/07/31 07:15:28;;;;;;;31.40;15.68;;;;;;;29.86;40.10;98926.66;4988920;28;20076;-71
2021/07/31 07:17:58;;;;;;;29.05;15.98;;;;;;;29.90;40.12;98925.19;4990179;28;20140;-70
2021/07/31 07:20:24;;;;;;;29.30;15.27;;;;;;;29.97;39.63;98916.22;4988494;28;20113;-69
2021/07/31 07:22:50;;;;;;;27.92;16.80;;;;;;;30.04;39.61;98925.84;4990530;28;20169;-70
2021/07/31 07:25:15;;;;;;;23.50;15.18;;;;;;;30.12;39.56;98919.25;4991406;28;20472;-71
2021/07/31 07:27:41;;;;;;;29.40;14.30;;;;;;;30.09;40.12;98931.75;4990859;28;20026;-69
2021/07/31 07:30:07;;;;;;;38.85;16.02;;;;;;;30.22;40.16;98922.13;4990510;28;20088;-70
2021/07/31 07:32:36;;;;;;;32.35;14.90;;;;;;;30.37;40.03;98917.25;4989775;28;20077;-70
2021/07/31 07:35:04;;;;;;;34.83;16.05;;;;;;;30.46;39.77;98921.41;4989795;28;20039;-70
2021/07/31 07:37:29;;;;;;;45.75;16.75;;;;;;;30.49;39.64;98921.25;4989628;28;20117;-70
2021/07/31 07:39:55;;;;;;;35.40;16.67;;;;;;;30.66;39.58;98920.88;4990114;28;20046;-71
2021/07/31 07:42:20;;;;;;;26.88;15.00;;;;;;;30.76;38.40;98922.44;4988564;28;20034;-70
2021/07/31 07:44:46;;;;;;;21.88;14.85;;;;;;;30.70;38.57;98923.59;4990998;28;20034;-70
2021/07/31 07:47:11;;;;;;;31.90;15.30;;;;;;;30.88;38.96;98922.69;4989040;28;20042;-71
2021/07/31 07:49:37;;;;;;;37.35;17.15;;;;;;;30.96;39.16;98918.94;4990115;28;20041;-71
2021/07/31 07:52:03;;;;;;;33.30;15.98;;;;;;;31.01;39.03;98917.47;4989327;28;20027;-72
2021/07/31 07:54:29;;;;;;;32.88;16.92;;;;;;;31.00;39.30;98913.00;4988129;28;20034;-71
2021/07/31 07:56:55;;;;;;;37.00;16.10;;;;;;;31.35;38.25;98909.59;4990422;28;20513;-71
2021/07/31 07:59:21;;;;;;;37.35;16.13;;;;;;;31.34;37.99;98910.06;4990680;28;20113;-71
2021/07/31 08:01:46;;;;;;;29.45;15.60;;;;;;;31.21;38.55;98911.09;4990564;28;20415;-70
2021/07/31 08:04:12;;;;;;;31.23;15.10;;;;;;;31.22;37.58;98904.03;4991024;28;20046;-69
2021/07/31 08:06:38;;;;;;;36.58;14.18;;;;;;;31.27;38.36;98902.56;4990926;28;20026;-71
2021/07/31 08:09:03;;;;;;;35.10;15.85;;;;;;;31.42;38.30;98896.03;4990958;28;20045;-70
2021/07/31 08:11:29;;;;;;;30.90;15.20;;;;;;;31.58;37.75;98889.81;4991531;28;20415;-70
2021/07/31 08:13:55;;;;;;;33.88;15.32;;;;;;;31.52;37.22;98883.13;4991427;28;20415;-71
2021/07/31 08:16:20;;;;;;;40.33;17.95;;;;;;;31.65;36.25;98897.28;4990402;28;20049;-69
2021/07/31 08:18:45;;;;;;;31.33;14.68;;;;;;;31.68;36.77;98896.31;4991464;28;20466;-70
2021/07/31 08:21:11;;;;;;;37.65;15.45;;;;;;;31.85;36.58;98881.38;4991369;28;20405;-71
2021/07/31 08:23:38;;;;;;;29.15;15.10;;;;;;;31.86;36.29;98889.56;5006623;28;20054;-70
2021/07/31 08:26:05;;;;;;;28.70;14.07;;;;;;;31.91;36.64;98882.31;4990171;28;20041;-70
2021/07/31 08:28:31;;;;;;;40.10;15.70;;;;;;;32.05;35.71;98890.16;4991193;28;20035;-71
2021/07/31 08:30:56;;;;;;;32.25;14.00;;;;;;;32.13;35.26;98878.22;4991148;28;20560;-70
2021/07/31 08:33:22;;;;;;;30.83;14.40;;;;;;;32.44;34.19;98874.00;4991278;28;20038;-70
2021/07/31 08:35:47;;;;;;;31.70;14.25;;;;;;;32.25;33.55;98882.91;4990036;28;20431;-70
2021/07/31 08:38:12;;;;;;;28.55;13.35;;;;;;;32.39;33.84;98881.28;4989692;28;20026;-70
2021/07/31 08:40:38;;;;;;;24.52;14.35;;;;;;;32.51;33.52;98873.59;4990843;28;20037;-70
2021/07/31 08:43:05;;;;;;;32.58;14.50;;;;;;;32.41;33.90;98877.91;4990374;28;20084;-70
2021/07/31 08:45:32;;;;;;;39.60;17.52;;;;;;;32.60;33.50;98885.06;4990478;28;20045;-70
2021/07/31 08:48:00;;;;;;;28.75;13.65;;;;;;;32.55;34.08;98873.41;4991118;28;20054;-70
2021/07/31 08:50:26;;;;;;;29.88;14.30;;;;;;;32.62;33.48;98873.78;4990714;28;20038;-71
2021/07/31 08:52:54;;;;;;;34.30;16.48;;;;;;;32.60;34.21;98867.69;4989807;28;20136;-71
2021/07/31 08:55:20;;;;;;;24.90;15.35;;;;;;;32.55;34.46;98862.59;4993172;28;20506;-71
2021/07/31 08:57:45;;;;;;;32.42;15.00;;;;;;;32.67;34.41;98866.47;4989608;28;20026;-71
2021/07/31 09:00:11;;;;;;;23.52;15.15;;;;;;;33.01;33.13;98866.19;4993197;28;20049;-71
2021/07/31 09:02:41;;;;;;;31.70;15.57;;;;;;;33.07;33.23;98861.28;4993881;28;20031;-71
2021/07/31 09:05:08;;;;;;;35.22;17.17;;;;;;;33.21;32.24;98864.59;4995333;28;20111;-70
2021/07/31 09:07:34;;;;;;;33.95;16.20;;;;;;;33.15;32.94;98856.63;4994784;28;20041;-70
2021/07/31 09:10:25;;;;;;;32.03;16.90;;;;;;;33.12;33.10;98860.53;4995040;28;20042;-70
2021/07/31 09:12:52;;;;;;;23.90;15.57;;;;;;;33.26;33.62;98866.75;5008739;28;20054;-70
2021/07/31 09:15:31;;;;;;;33.70;15.40;;;;;;;33.52;32.63;98854.44;4994722;28;20030;-71
2021/07/31 09:18:31;;;;;;;22.13;14.25;;;;;;;33.64;33.02;98849.56;4994462;28;20105;-70
2021/07/31 09:21:10;;;;;;;30.42;14.50;;;;;;;33.82;33.10;98843.41;4993622;28;20050;-71
2021/07/31 09:23:44;;;;;;;21.40;13.82;;;;;;;33.93;32.61;98847.72;4994731;28;20047;-71
2021/07/31 09:26:16;;;;;;;22.27;12.65;;;;;;;33.87;33.08;98853.47;4994455;28;20023;-71
2021/07/31 09:28:42;;;;;;;24.42;13.32;;;;;;;33.88;32.48;98852.16;4993912;28;20038;-71
2021/07/31 09:31:17;;;;;;;33.97;14.18;;;;;;;33.88;32.20;98852.16;4991815;28;20565;-70
2021/07/31 09:33:45;;;;;;;24.63;12.07;;;;;;;33.94;32.65;98850.13;4981119;28;20030;-71
2021/07/31 09:36:10;;;;;;;22.95;11.52;;;;;;;33.99;33.03;98854.41;5009979;28;20038;-70
2021/07/31 09:38:38;;;;;;;18.27;11.02;;;;;;;34.33;32.28;98857.56;4993180;28;20085;-70
2021/07/31 09:41:25;;;;;;;15.63;9.80;;;;;;;34.27;32.10;98848.84;4994223;28;20396;-71
2021/07/31 09:44:02;;;;;;;32.38;10.57;;;;;;;34.47;30.56;98850.03;4992816;28;20104;-71
2021/07/31 09:46:48;;;;;;;23.17;11.02;;;;;;;34.51;30.63;98832.38;4994150;28;20026;-71
2021/07/31 09:49:15;;;;;;;19.00;10.05;;;;;;;34.47;31.77;98832.63;4993212;28;20451;-71
2021/07/31 09:51:46;;;;;;;23.05;11.60;;;;;;;34.43;32.11;98832.84;4992847;28;20057;-70
2021/07/31 09:54:14;;;;;;;23.92;9.50;;;;;;;34.60;31.07;98828.50;4994111;28;20036;-70
2021/07/31 09:56:41;;;;;;;22.52;10.25;;;;;;;34.63;30.98;98818.75;4992724;28;20397;-70
2021/07/31 09:59:08;;;;;;;22.65;9.52;;;;;;;34.72;30.61;98824.34;4994008;28;20038;-71
2021/07/31 10:01:41;;;;;;;22.88;9.32;;;;;;;34.77;30.55;98817.81;4994091;28;20455;-71
2021/07/31 10:04:08;;;;;;;15.85;9.05;;;;;;;34.75;30.25;98816.72;4993592;28;20030;-71
2021/07/31 10:06:33;;;;;;;22.00;9.50;;;;;;;34.73;31.11;98808.53;4988520;28;20031;-70
2021/07/31 10:09:02;;;;;;;21.27;9.95;;;;;;;34.76;31.27;98806.69;4990599;28;20534;-71
2021/07/31 10:11:28;;;;;;;16.95;10.05;;;;;;;34.90;30.64;98788.28;4993789;28;20062;-71
2021/07/31 10:13:55;;;;;;;24.92;10.07;;;;;;;34.89;31.10;98791.72;4993693;28;20574;-71
2021/07/31 10:16:21;;;;;;;22.65;11.23;;;;;;;35.12;30.10;98787.63;4992562;28;20030;-71
2021/07/31 10:19:01;;;;;;;21.00;8.50;;;;;;;35.13;29.82;98782.59;4993576;28;20042;-71
2021/07/31 10:21:28;;;;;;;18.25;8.85;;;;;;;35.19;29.55;98776.78;4993610;28;20121;-70
2021/07/31 10:24:07;;;;;;;21.42;8.93;;;;;;;35.19;29.77;98773.88;4992923;28;20955;-71
2021/07/31 10:26:36;;;;;;;;;;;;;;;35.10;29.87;98766.22;4991412;28;20026;-71
2021/07/31 10:29:26;;;;;;;20.45;9.77;;;;;;;35.28;29.44;98767.84;4993615;28;19926;-71
2021/07/31 10:31:54;;;;;;;24.90;8.65;;;;;;;35.37;29.26;98752.28;4993224;28;20049;-70
2021/07/31 10:34:44;;;;;;;17.88;8.65;;;;;;;35.33;28.74;98760.47;4992596;28;20073;-71
2021/07/31 10:37:31;;;;;;;24.95;8.65;;;;;;;35.43;28.99;98758.91;4981062;28;20514;-71
2021/07/31 10:40:07;;;;;;;22.42;8.32;;;;;;;35.62;28.30;98770.84;4993303;28;20042;-71
2021/07/31 10:42:47;;;;;;;24.73;8.00;;;;;;;35.51;27.95;98765.75;4992334;28;20048;-70
2021/07/31 10:45:16;;;;;;;21.85;8.13;;;;;;;35.50;27.81;98763.41;4991896;28;20066;-71
2021/07/31 10:47:45;;;;;;;17.88;7.72;;;;;;;35.48;27.92;98763.09;4993132;28;20022;-71
2021/07/31 10:50:22;;;;;;;26.37;9.40;;;;;;;35.61;28.17;98763.44;5007777;28;20439;-71
2021/07/31 10:53:00;;;;;;;28.50;8.60;;;;;;;35.72;27.70;98758.94;4991708;28;20023;-71
2021/07/31 10:55:35;;;;;;;28.27;8.48;;;;;;;36.02;26.83;98762.13;4992806;28;20443;-71
2021/07/31 10:58:06;;;;;;;26.95;9.07;;;;;;;36.05;26.45;98751.56;5007909;28;20041;-71
2021/07/31 11:00:34;;;;;;;23.23;8.77;;;;;;;36.08;26.40;98747.56;4991707;28;20038;-71
2021/07/31 11:03:04;;;;;;;35.65;9.18;;;;;;;35.98;27.15;98744.94;4991219;28;20038;-71
2021/07/31 11:05:48;;;;;;;27.33;9.13;;;;;;;35.86;26.55;98740.44;4991440;28;20023;-71
2021/07/31 11:08:14;;;;;;;18.35;8.40;;;;;;;35.96;26.84;98732.22;4992544;28;20038;-71
2021/07/31 11:10:44;;;;;;;26.83;9.05;;;;;;;35.86;26.85;98725.09;4991304;28;20034;-71
2021/07/31 11:13:32;;;;;;;;;;;;;;;36.16;26.19;98719.53;4993023;28;20109;-71
2021/07/31 11:16:04;;;;;;;27.63;9.10;;;;;;;36.35;25.18;98713.16;4992360;28;19917;-71
2021/07/31 11:18:35;;;;;;;28.23;8.48;;;;;;;36.45;25.60;98704.91;4991499;28;20035;-71